Atwood, CA

2:06 PM PDT on August 29, 2014 (GMT -0700)
SW Yorba Linda/NW Anaheim Hills | Change Station
CLOSE
Current Station
Personal Weather Station
Location: Yorba Linda, CA
Elevation: 278 ft
Nearby Weather Stations
Active Advisory: High Surf Advisory Active Notice: Local Storm Report

Elev 278 ft 33.87 °N, 117.80 °W | Updated 4 seconds ago

Clear
Clear
89.2 °F
Feels Like 87 °F
N
5.8
Wind Variable Wind from NW
Gusts 7.6 mph

Today
High -- | Low -- °F
--% Chance of Precip.
Yesterday
High -- | Low -- °F
Precip. -- in
6:23 AM 7:20 PM
Waxing Crescent, 16% visible
Pressure 29.83 in
Visibility 10.0 miles
Clouds Clear
Heat Index 87 °F
Dew Point 53 °F
Humidity 29%
Rainfall 0.00 in
Snow Depth Not available.
UV 10 out of 12
Pollen 7.80 out of 12
Ozone Good
PM2.5 Moderate
Flu Activity Not available.
METAR KFUL 292053Z 21007KT 170V280 10SM CLR 31/14 A2983 RMK AO2 SLP099 T03060139 56015

More Conditions Fewer Conditions

Pressure 29.83 in
Visibility 10.0 miles
Clouds Clear
Heat Index 87 °F
Dew Point 53 °F
Humidity 29%
Rainfall 0.00 in
Snow Depth Not available.
UV 10 out of 12
Pollen 7.80 out of 12
Ozone Good
PM2.5 Moderate
Flu Activity Not available.
METAR KFUL 292053Z 21007KT 170V280 10SM CLR 31/14 A2983 RMK AO2 SLP099 T03060139 56015

More Conditions Fewer Conditions

10-Day Weather Forecast

Almanac

Astronomy

Aug. 29, 2014 Rise Set
Actual Time 6:23 AM PDT 7:20 PM PDT
Civil Twilight 5:57 AM PDT 7:46 PM PDT
Nautical Twilight 5:27 AM PDT 8:16 PM PDT
Astronomical Twilight 4:55 AM PDT 8:47 PM PDT
Moon 10:04 AM PDT 9:34 PM PDT
Length of Visible Light 13h 48m
Length of Day
12h 57m
Tomorrow will be 1m 59s shorter.
Waxing Crescent, 16% of the Moon is Illuminated
Today
Waxing Crescent
Sep 2
First Quarter
Sep 8
Full
Sep 15
Last Quarter
Sep 24
New

Today's Extremes

State Highs State Lows

Community

WunderPhotos

Upload Photos

1,748,347 photos uploaded!

Nearby

Air Quality

  Air Quality AQ Index Pollutant
Yesterday Good
PM10
Yesterday Good
OZONE
Current Moderate
PM2.5
Current Good
OZONE
Saturday Good
PM10
Saturday Good
OZONE
Saturday Good
CO
Saturday Good
NO2

Snow Depth

Station Depth Elevation
Leavitt Meadows 0 in 7200 ft
Summit Meadow 0 in 9122 ft
CSS Lab 1 in 6900 ft
Adin Mountain 0 in 6200 ft
Cedar Pass 0 in 7100 ft

Earthquake Activity

City Distance Mag. Time & Date
No recent earthquake activity has been reported nearby.
Minimum magnitude displayed is 2.5.

Coastal Water Temperatures

Place Temperature
Santa Monica Pier 72.0 °F
Los Angeles, CA 66.0 °F
La Jolla, CA 73.9 °F

Nearby Weather Stations